createdAt,value
2016-09-07T00:00:46.730Z,0
2016-09-07T00:01:46.081Z,0
2016-09-07T00:02:46.698Z,0
2016-09-07T00:03:46.691Z,0
2016-09-07T00:04:45.734Z,0
2016-09-07T00:05:46.671Z,0
2016-09-07T00:06:46.347Z,0
2016-09-07T00:07:46.630Z,0
2016-09-07T00:08:46.620Z,0
2016-09-07T00:09:46.640Z,0
2016-09-07T00:10:46.276Z,0
2016-09-07T00:11:46.590Z,0
2016-09-07T00:12:46.600Z,0
2016-09-07T00:13:46.577Z,0
2016-09-07T00:14:46.231Z,0
2016-09-07T00:15:46.547Z,0
2016-09-07T00:16:46.522Z,0
2016-09-07T00:17:46.235Z,0
2016-09-07T00:18:45.849Z,0
2016-09-07T00:19:46.150Z,0
2016-09-07T00:20:45.882Z,0
2016-09-07T00:21:46.460Z,0
2016-09-07T00:22:46.461Z,0
2016-09-07T00:23:46.137Z,0
2016-09-07T00:24:46.099Z,0
2016-09-07T00:25:46.396Z,0
2016-09-07T00:26:45.748Z,0
2016-09-07T00:27:46.109Z,0
2016-09-07T00:28:46.371Z,0
2016-09-07T00:29:46.021Z,0
2016-09-07T00:30:46.013Z,0
2016-09-07T00:31:46.337Z,0
2016-09-07T00:32:45.999Z,0
2016-09-07T00:33:45.338Z,0
2016-09-07T00:34:46.287Z,0
2016-09-07T00:35:46.272Z,0
2016-09-07T00:36:46.268Z,0
2016-09-07T00:37:46.256Z,0
2016-09-07T00:38:46.219Z,0
2016-09-07T00:39:45.588Z,0
2016-09-07T00:40:46.208Z,0
2016-09-07T00:41:45.871Z,0
2016-09-07T00:42:45.859Z,0
2016-09-07T00:43:45.851Z,0
2016-09-07T00:44:45.842Z,0
2016-09-07T00:45:45.811Z,0
2016-09-07T00:46:46.142Z,0
2016-09-07T00:47:45.786Z,0
2016-09-07T00:48:45.780Z,0
2016-09-07T00:49:46.080Z,0
2016-09-07T00:50:46.086Z,0
2016-09-07T00:51:46.068Z,0
2016-09-07T00:52:46.036Z,0
2016-09-07T00:53:45.730Z,0
2016-09-07T00:54:45.710Z,0
2016-09-07T00:55:45.717Z,0
2016-09-07T00:56:45.661Z,0
2016-09-07T00:57:45.664Z,0
2016-09-07T00:58:45.971Z,0
2016-09-07T00:59:45.962Z,0
2016-09-07T01:00:45.931Z,0
2016-09-07T01:01:45.281Z,0
2016-09-07T01:02:45.601Z,0
2016-09-07T01:03:45.891Z,0
2016-09-07T01:04:45.562Z,0
2016-09-07T01:05:45.569Z,0
2016-09-07T01:06:45.539Z,0
2016-09-07T01:07:45.600Z,0
2016-09-07T01:08:45.846Z,0
2016-09-07T01:09:45.488Z,0
2016-09-07T01:10:45.482Z,0
2016-09-07T01:11:45.861Z,0
2016-09-07T01:12:45.499Z,0
2016-09-07T01:13:45.132Z,0
2016-09-07T01:14:45.437Z,0
2016-09-07T01:15:45.743Z,0
2016-09-07T01:16:45.410Z,0
2016-09-07T01:17:45.421Z,0
2016-09-07T01:18:45.391Z,0
2016-09-07T01:19:45.697Z,0
2016-09-07T01:20:45.372Z,0
2016-09-07T01:21:45.348Z,0
2016-09-07T01:22:45.651Z,0
2016-09-07T01:23:45.629Z,0
2016-09-07T01:24:44.971Z,0
2016-09-07T01:25:45.291Z,0
2016-09-07T01:26:45.630Z,0
2016-09-07T01:27:45.279Z,0
2016-09-07T01:28:44.926Z,0
2016-09-07T01:29:45.560Z,0
2016-09-07T01:30:45.551Z,0
2016-09-07T01:31:45.181Z,0
2016-09-07T01:32:45.170Z,0
2016-09-07T01:33:45.490Z,0
2016-09-07T01:34:45.481Z,0
2016-09-07T01:35:45.461Z,0
2016-09-07T01:36:45.121Z,0
2016-09-07T01:37:45.447Z,0
2016-09-07T01:38:45.487Z,0
2016-09-07T01:39:45.100Z,0
2016-09-07T01:40:45.413Z,0
2016-09-07T01:41:45.391Z,0
2016-09-07T01:42:44.730Z,0
2016-09-07T01:43:45.347Z,0
2016-09-07T01:44:45.021Z,0
2016-09-07T01:45:44.670Z,0
2016-09-07T01:46:44.994Z,0
2016-09-07T01:47:45.318Z,0
2016-09-07T01:48:45.291Z,0
2016-09-07T01:49:44.942Z,0
2016-09-07T01:50:45.252Z,0
2016-09-07T01:51:45.252Z,0
2016-09-07T01:52:44.909Z,0
2016-09-07T01:53:45.231Z,0
2016-09-07T01:54:45.209Z,0
2016-09-07T01:55:44.542Z,0
2016-09-07T01:56:45.175Z,0
2016-09-07T01:57:45.160Z,0
2016-09-07T01:58:45.140Z,0
2016-09-07T01:59:44.797Z,0
2016-09-07T02:00:45.120Z,0
2016-09-07T02:01:44.778Z,0
2016-09-07T02:02:45.092Z,0
2016-09-07T02:03:44.773Z,0
2016-09-07T02:04:44.430Z,0
2016-09-07T02:05:44.732Z,0
2016-09-07T02:06:44.395Z,0
2016-09-07T02:07:44.697Z,0
2016-09-07T02:08:44.372Z,0
2016-09-07T02:09:44.980Z,0
2016-09-07T02:10:44.649Z,0
2016-09-07T02:11:44.950Z,0
2016-09-07T02:12:44.938Z,0
2016-09-07T02:13:44.940Z,0
2016-09-07T02:14:44.901Z,0
2016-09-07T02:15:44.917Z,0
2016-09-07T02:16:44.889Z,0
2016-09-07T02:17:44.588Z,0
2016-09-07T02:18:44.928Z,0
2016-09-07T02:19:44.622Z,0
2016-09-07T02:20:44.879Z,0
2016-09-07T02:21:44.842Z,0
2016-09-07T02:22:44.801Z,0
2016-09-07T02:23:44.820Z,0
2016-09-07T02:24:44.193Z,0
2016-09-07T02:25:44.808Z,0
2016-09-07T02:26:44.122Z,0
2016-09-07T02:27:43.786Z,0
2016-09-07T02:28:44.730Z,0
2016-09-07T02:29:44.733Z,0
2016-09-07T02:30:44.370Z,0
2016-09-07T02:31:44.686Z,0
2016-09-07T02:32:44.718Z,0
2016-09-07T02:33:44.658Z,0
2016-09-07T02:34:44.641Z,0
2016-09-07T02:35:44.627Z,0
2016-09-07T02:36:44.287Z,0
2016-09-07T02:37:44.276Z,0
2016-09-07T02:38:43.969Z,0
2016-09-07T02:39:43.922Z,0
2016-09-07T02:40:44.591Z,0
2016-09-07T02:41:44.220Z,0
2016-09-07T02:42:44.514Z,0
2016-09-07T02:43:44.510Z,0
2016-09-07T02:44:44.188Z,0
2016-09-07T02:45:44.172Z,0
2016-09-07T02:46:44.175Z,0
2016-09-07T02:47:44.467Z,0
2016-09-07T02:48:44.460Z,0
2016-09-07T02:49:44.437Z,0
2016-09-07T02:50:44.430Z,0
2016-09-07T02:51:44.439Z,0
2016-09-07T02:52:44.420Z,0
2016-09-07T02:53:44.391Z,0
2016-09-07T02:54:44.028Z,0
2016-09-07T02:55:44.360Z,0
2016-09-07T02:56:44.021Z,0
2016-09-07T02:57:44.303Z,0
2016-09-07T02:58:43.967Z,0
2016-09-07T02:59:43.992Z,0
2016-09-07T03:00:44.280Z,0
2016-09-07T03:01:43.941Z,0
2016-09-07T03:02:43.909Z,0
2016-09-07T03:03:44.242Z,0
2016-09-07T03:04:43.909Z,0
2016-09-07T03:05:44.199Z,0
2016-09-07T03:06:44.187Z,0
2016-09-07T03:07:44.170Z,0
2016-09-07T03:08:44.221Z,0
2016-09-07T03:09:43.826Z,0
2016-09-07T03:10:44.138Z,0
2016-09-07T03:11:44.122Z,0
2016-09-07T03:12:43.815Z,0
2016-09-07T03:13:44.091Z,0
2016-09-07T03:14:43.742Z,0
2016-09-07T03:15:43.421Z,0
2016-09-07T03:16:44.039Z,0
2016-09-07T03:17:43.720Z,0
2016-09-07T03:18:44.008Z,0
2016-09-07T03:19:43.698Z,0
2016-09-07T03:20:43.700Z,0
2016-09-07T03:21:43.652Z,0
2016-09-07T03:22:43.964Z,0
2016-09-07T03:23:43.291Z,0
2016-09-07T03:24:43.939Z,0
2016-09-07T03:25:43.591Z,0
2016-09-07T03:26:43.909Z,0
2016-09-07T03:27:43.562Z,0
2016-09-07T03:28:43.873Z,0
2016-09-07T03:29:43.632Z,0
2016-09-07T03:30:43.528Z,0
2016-09-07T03:31:43.852Z,0
2016-09-07T03:32:43.831Z,0
2016-09-07T03:33:43.791Z,0
2016-09-07T03:34:43.783Z,0
2016-09-07T03:35:43.531Z,0
2016-09-07T03:36:43.479Z,0
2016-09-07T03:37:43.750Z,0
2016-09-07T03:38:43.417Z,0
2016-09-07T03:39:43.391Z,0
2016-09-07T03:40:43.364Z,0
2016-09-07T03:41:43.687Z,0
2016-09-07T03:42:43.662Z,0
2016-09-07T03:43:43.361Z,0
2016-09-07T03:44:43.336Z,0
2016-09-07T03:45:43.290Z,0
2016-09-07T03:46:43.638Z,0
2016-09-07T03:47:43.008Z,0
2016-09-07T03:48:43.261Z,0
2016-09-07T03:49:43.570Z,0
2016-09-07T03:50:43.548Z,0
2016-09-07T03:51:43.221Z,0
2016-09-07T03:52:43.199Z,0
2016-09-07T03:53:43.520Z,0
2016-09-07T03:54:43.170Z,0
2016-09-07T03:55:43.167Z,0
2016-09-07T03:56:43.467Z,0
2016-09-07T03:57:43.459Z,0
2016-09-07T03:58:42.791Z,0
2016-09-07T03:59:43.109Z,0
2016-09-07T04:00:42.761Z,0
2016-09-07T04:01:43.091Z,0
2016-09-07T04:02:43.376Z,0
2016-09-07T04:03:43.408Z,0
2016-09-07T04:04:43.405Z,0
2016-09-07T04:05:43.348Z,0
2016-09-07T04:06:43.004Z,0
2016-09-07T04:07:43.311Z,0
2016-09-07T04:08:43.373Z,0
2016-09-07T04:09:43.288Z,0
2016-09-07T04:10:43.342Z,0
2016-09-07T04:11:43.253Z,0
2016-09-07T04:12:42.908Z,0
2016-09-07T04:13:42.310Z,0
2016-09-07T04:14:43.250Z,0
2016-09-07T04:15:42.857Z,0
2016-09-07T04:16:42.540Z,0
2016-09-07T04:17:42.840Z,0
2016-09-07T04:18:42.858Z,0
2016-09-07T04:19:42.818Z,0
2016-09-07T04:20:42.812Z,0
2016-09-07T04:21:42.779Z,0
2016-09-07T04:22:42.140Z,0
2016-09-07T04:23:42.780Z,0
2016-09-07T04:24:43.065Z,0
2016-09-07T04:25:43.051Z,0
2016-09-07T04:26:43.029Z,0
2016-09-07T04:27:42.698Z,0
2016-09-07T04:28:42.997Z,0
2016-09-07T04:29:42.653Z,0
2016-09-07T04:30:42.989Z,0
2016-09-07T04:31:42.996Z,0
2016-09-07T04:32:42.684Z,0
2016-09-07T04:33:42.929Z,0
2016-09-07T04:34:42.592Z,0
2016-09-07T04:35:42.901Z,0
2016-09-07T04:36:42.871Z,0
2016-09-07T04:37:42.548Z,0
2016-09-07T04:38:42.244Z,0
2016-09-07T04:39:42.517Z,0
2016-09-07T04:40:42.512Z,0
2016-09-07T04:41:42.796Z,0
2016-09-07T04:42:42.138Z,0
2016-09-07T04:43:42.471Z,0
2016-09-07T04:44:42.762Z,0
2016-09-07T04:45:42.747Z,0
2016-09-07T04:46:42.739Z,0
2016-09-07T04:47:42.739Z,0
2016-09-07T04:48:42.370Z,0
2016-09-07T04:49:42.369Z,0
2016-09-07T04:50:42.668Z,0
2016-09-07T04:51:42.341Z,5
2016-09-07T04:52:42.001Z,5
2016-09-07T04:53:42.310Z,5
2016-09-07T04:54:42.280Z,5
2016-09-07T04:55:42.606Z,5
2016-09-07T04:56:42.278Z,5
2016-09-07T04:57:42.237Z,5
2016-09-07T04:58:42.229Z,5
2016-09-07T04:59:42.550Z,5
2016-09-07T05:00:42.231Z,10
2016-09-07T05:01:42.201Z,10
2016-09-07T05:02:42.179Z,10
2016-09-07T05:03:42.178Z,10
2016-09-07T05:04:42.209Z,10
2016-09-07T05:05:41.810Z,10
2016-09-07T05:06:42.126Z,15
2016-09-07T05:07:41.463Z,15
2016-09-07T05:08:42.393Z,15
2016-09-07T05:09:41.750Z,15
2016-09-07T05:10:41.733Z,15
2016-09-07T05:11:41.728Z,15
2016-09-07T05:12:42.027Z,15
2016-09-07T05:13:42.338Z,20
2016-09-07T05:14:42.010Z,20
2016-09-07T05:15:42.291Z,20
2016-09-07T05:16:41.958Z,20
2016-09-07T05:17:41.949Z,20
2016-09-07T05:18:41.608Z,20
2016-09-07T05:19:41.978Z,25
2016-09-07T05:20:41.597Z,25
2016-09-07T05:21:42.182Z,25
2016-09-07T05:22:42.212Z,25
2016-09-07T05:23:41.521Z,30
2016-09-07T05:24:41.253Z,30
2016-09-07T05:25:41.824Z,30
2016-09-07T05:26:41.822Z,30
2016-09-07T05:27:41.803Z,30
2016-09-07T05:28:41.482Z,30
2016-09-07T05:29:42.099Z,35
2016-09-07T05:30:42.090Z,35
2016-09-07T05:31:41.749Z,35
2016-09-07T05:32:42.043Z,35
2016-09-07T05:33:42.120Z,40
2016-09-07T05:34:41.371Z,40
2016-09-07T05:35:41.690Z,40
2016-09-07T05:36:41.984Z,40
2016-09-07T05:37:41.968Z,45
2016-09-07T05:38:41.939Z,45
2016-09-07T05:39:41.980Z,45
2016-09-07T05:40:41.931Z,45
2016-09-07T05:41:41.901Z,50
2016-09-07T05:42:41.969Z,50
2016-09-07T05:43:41.878Z,50
2016-09-07T05:44:41.566Z,50
2016-09-07T05:45:41.220Z,50
2016-09-07T05:46:41.827Z,50
2016-09-07T05:47:41.209Z,50
2016-09-07T05:48:41.492Z,55
2016-09-07T05:49:41.460Z,55
2016-09-07T05:50:41.472Z,55
2016-09-07T05:51:41.762Z,55
2016-09-07T05:52:41.771Z,60
2016-09-07T05:53:41.420Z,60
2016-09-07T05:54:41.432Z,60
2016-09-07T05:55:41.411Z,65
2016-09-07T05:56:41.038Z,65
2016-09-07T05:57:41.699Z,65
2016-09-07T05:58:41.650Z,65
2016-09-07T05:59:41.659Z,65
2016-09-07T06:00:41.321Z,70
2016-09-07T06:01:41.288Z,70
2016-09-07T06:02:41.618Z,70
2016-09-07T06:03:40.679Z,70
2016-09-07T06:04:41.661Z,70
2016-09-07T06:05:41.242Z,70
2016-09-07T06:06:41.619Z,70
2016-09-07T06:07:41.542Z,70
2016-09-07T06:08:41.209Z,70
2016-09-07T06:09:41.192Z,70
2016-09-07T06:10:41.551Z,70
2016-09-07T06:11:40.837Z,70
2016-09-07T06:12:41.482Z,75
2016-09-07T06:13:40.809Z,70
2016-09-07T06:14:41.490Z,70
2016-09-07T06:15:40.779Z,75
2016-09-07T06:16:41.459Z,75
2016-09-07T06:17:41.411Z,70
2016-09-07T06:18:40.730Z,70
2016-09-07T06:19:41.068Z,75
2016-09-07T06:20:41.403Z,75
2016-09-07T06:21:41.339Z,75
2016-09-07T06:22:40.351Z,75
2016-09-07T06:23:40.672Z,75
2016-09-07T06:24:40.662Z,80
2016-09-07T06:25:41.277Z,80
2016-09-07T06:26:41.272Z,80
2016-09-07T06:27:41.238Z,85
2016-09-07T06:28:40.259Z,85
2016-09-07T06:29:40.898Z,90
2016-09-07T06:30:41.202Z,90
2016-09-07T06:31:40.540Z,95
2016-09-07T06:32:40.517Z,95
2016-09-07T06:33:40.830Z,100
2016-09-07T06:34:40.861Z,95
2016-09-07T06:35:41.201Z,100
2016-09-07T06:36:40.480Z,105
2016-09-07T06:37:41.107Z,105
2016-09-07T06:38:41.087Z,105
2016-09-07T06:39:40.778Z,110
2016-09-07T06:40:40.755Z,110
2016-09-07T06:41:40.714Z,110
2016-09-07T06:42:40.730Z,110
2016-09-07T06:43:41.019Z,110
2016-09-07T06:44:40.688Z,110
2016-09-07T06:45:41.326Z,110
2016-09-07T06:46:40.340Z,110
2016-09-07T06:47:40.377Z,110
2016-09-07T06:48:40.949Z,110
2016-09-07T06:49:40.943Z,115
2016-09-07T06:50:40.365Z,115
2016-09-07T06:51:40.578Z,115
2016-09-07T06:52:40.895Z,120
2016-09-07T06:53:40.553Z,120
2016-09-07T06:54:40.869Z,125
2016-09-07T06:55:40.535Z,130
2016-09-07T06:56:40.839Z,140
2016-09-07T06:57:40.589Z,145
2016-09-07T06:58:40.497Z,150
2016-09-07T06:59:40.505Z,160
2016-09-07T07:00:40.467Z,175
2016-09-07T07:01:40.439Z,255
2016-09-07T07:02:40.437Z,600
2016-09-07T07:03:40.437Z,1035
2016-09-07T07:04:40.471Z,1280
2016-09-07T07:05:40.397Z,1295
2016-09-07T07:06:40.397Z,1300
2016-09-07T07:07:40.716Z,1295
2016-09-07T07:08:40.034Z,1270
2016-09-07T07:09:40.430Z,1190
2016-09-07T07:10:40.346Z,1030
2016-09-07T07:11:40.331Z,875
2016-09-07T07:12:40.329Z,930
2016-09-07T07:13:39.677Z,830
2016-09-07T07:14:40.690Z,710
2016-09-07T07:15:40.607Z,655
2016-09-07T07:16:40.283Z,655
2016-09-07T07:17:39.956Z,455
2016-09-07T07:18:40.590Z,210
2016-09-07T07:19:39.928Z,185
2016-09-07T07:20:40.613Z,185
2016-09-07T07:21:40.619Z,185
2016-09-07T07:22:40.239Z,190
2016-09-07T07:23:39.903Z,185
2016-09-07T07:24:39.889Z,185
2016-09-07T07:25:40.529Z,185
2016-09-07T07:26:39.957Z,185
2016-09-07T07:27:40.166Z,185
2016-09-07T07:28:40.158Z,195
2016-09-07T07:29:40.626Z,205
2016-09-07T07:30:40.499Z,205
2016-09-07T07:31:39.831Z,205
2016-09-07T07:32:40.129Z,210
2016-09-07T07:33:39.811Z,210
2016-09-07T07:34:40.107Z,215
2016-09-07T07:35:40.127Z,220
2016-09-07T07:36:40.457Z,225
2016-09-07T07:37:39.777Z,235
2016-09-07T07:38:40.394Z,250
2016-09-07T07:39:40.459Z,495
2016-09-07T07:40:40.086Z,1065
2016-09-07T07:41:40.393Z,1320
2016-09-07T07:42:40.389Z,1430
2016-09-07T07:43:40.071Z,1405
2016-09-07T07:44:39.726Z,1345
2016-09-07T07:45:40.050Z,1345
2016-09-07T07:46:40.030Z,1410
2016-09-07T07:47:39.710Z,1620
2016-09-07T07:48:40.357Z,1620
2016-09-07T07:49:40.048Z,1565
2016-09-07T07:50:40.025Z,1565
2016-09-07T07:51:40.071Z,1670
2016-09-07T07:52:40.037Z,1715
2016-09-07T07:53:40.365Z,1650
2016-09-07T07:54:40.009Z,1525
2016-09-07T07:55:40.010Z,1490
2016-09-07T07:56:40.317Z,1600
2016-09-07T07:57:39.345Z,1720
2016-09-07T07:58:40.344Z,1650
2016-09-07T07:59:39.375Z,1455
2016-09-07T08:00:39.669Z,1395
2016-09-07T08:01:40.296Z,1370
2016-09-07T08:02:40.307Z,1295
2016-09-07T08:03:39.726Z,1250
2016-09-07T08:04:39.728Z,1315
2016-09-07T08:05:40.299Z,1360
2016-09-07T08:06:40.308Z,1300
2016-09-07T08:07:40.307Z,1160
2016-09-07T08:08:39.657Z,820
2016-09-07T08:09:40.012Z,1310
2016-09-07T08:10:40.306Z,1480
2016-09-07T08:11:39.987Z,1430
2016-09-07T08:12:39.667Z,1410
2016-09-07T08:13:39.978Z,1620
2016-09-07T08:14:40.291Z,1650
2016-09-07T08:15:39.315Z,1530
2016-09-07T08:16:40.277Z,1410
2016-09-07T08:17:39.968Z,1390
2016-09-07T08:18:40.007Z,1375
2016-09-07T08:19:39.958Z,1465
2016-09-07T08:20:40.038Z,1465
2016-09-07T08:21:40.285Z,1450
2016-09-07T08:22:40.289Z,1425
2016-09-07T08:23:40.276Z,1390
2016-09-07T08:24:39.971Z,1300
2016-09-07T08:25:40.290Z,1350
2016-09-07T08:26:39.662Z,1460
2016-09-07T08:27:40.288Z,1465
2016-09-07T08:28:40.272Z,1440
2016-09-07T08:29:40.280Z,1350
2016-09-07T08:30:39.632Z,1455
2016-09-07T08:31:39.640Z,1405
2016-09-07T08:32:40.277Z,1385
2016-09-07T08:33:39.978Z,1405
2016-09-07T08:34:39.974Z,1545
2016-09-07T08:35:40.288Z,1505
2016-09-07T08:36:39.648Z,1480
2016-09-07T08:37:39.965Z,1380
2016-09-07T08:38:39.325Z,1370
2016-09-07T08:39:40.288Z,1365
2016-09-07T08:40:40.306Z,1400
2016-09-07T08:41:39.658Z,1435
2016-09-07T08:42:40.310Z,1455
2016-09-07T08:43:39.666Z,1465
2016-09-07T08:44:39.669Z,1425
2016-09-07T08:45:39.649Z,1590
2016-09-07T08:46:39.668Z,1600
2016-09-07T08:47:39.365Z,1445
2016-09-07T08:48:39.991Z,1680
2016-09-07T08:49:39.673Z,1705
2016-09-07T08:50:40.319Z,1545
2016-09-07T08:51:39.665Z,1525
2016-09-07T08:52:39.689Z,1500
2016-09-07T08:53:40.315Z,1500
2016-09-07T08:54:40.338Z,1570
2016-09-07T08:55:39.706Z,1605
2016-09-07T08:56:40.338Z,1630
2016-09-07T08:57:40.328Z,1635
2016-09-07T08:58:40.347Z,1615
2016-09-07T08:59:39.694Z,1565
2016-09-07T09:00:40.348Z,1545
2016-09-07T09:01:40.345Z,1595
2016-09-07T09:02:40.031Z,1610
2016-09-07T09:03:40.347Z,1605
2016-09-07T09:04:40.070Z,1500
2016-09-07T09:05:40.049Z,1425
2016-09-07T09:06:40.038Z,1420
2016-09-07T09:07:40.367Z,1570
2016-09-07T09:08:40.125Z,1570
2016-09-07T09:09:40.058Z,1550
2016-09-07T09:10:40.395Z,1475
2016-09-07T09:11:40.080Z,1430
2016-09-07T09:12:39.741Z,1450
2016-09-07T09:13:40.082Z,1390
2016-09-07T09:14:39.455Z,1385
2016-09-07T09:15:40.391Z,1310
2016-09-07T09:16:40.409Z,1375
2016-09-07T09:17:39.765Z,1355
2016-09-07T09:18:40.089Z,1330
2016-09-07T09:19:40.144Z,1365
2016-09-07T09:20:40.104Z,1395
2016-09-07T09:21:40.489Z,1410
2016-09-07T09:22:40.108Z,1370
2016-09-07T09:23:40.109Z,1495
2016-09-07T09:24:40.129Z,1435
2016-09-07T09:25:39.786Z,1455
2016-09-07T09:26:39.786Z,1420
2016-09-07T09:27:39.788Z,1420
2016-09-07T09:28:40.142Z,1480
2016-09-07T09:29:40.489Z,1190
2016-09-07T09:30:40.150Z,1515
2016-09-07T09:31:40.518Z,1525
2016-09-07T09:32:40.119Z,1360
2016-09-07T09:33:40.134Z,1255
2016-09-07T09:34:40.154Z,1390
2016-09-07T09:35:39.819Z,1420
2016-09-07T09:36:39.192Z,1380
2016-09-07T09:37:40.157Z,1435
2016-09-07T09:38:40.147Z,1460
2016-09-07T09:39:40.156Z,1445
2016-09-07T09:40:40.168Z,1410
2016-09-07T09:41:39.849Z,1480
2016-09-07T09:42:40.487Z,1380
2016-09-07T09:43:40.494Z,1415
2016-09-07T09:44:40.489Z,1385
2016-09-07T09:45:40.487Z,1265
2016-09-07T09:46:40.170Z,1270
2016-09-07T09:47:40.487Z,1265
2016-09-07T09:48:40.189Z,1120
2016-09-07T09:49:40.498Z,1170
2016-09-07T09:50:40.189Z,1275
2016-09-07T09:51:40.203Z,1310
2016-09-07T09:52:40.526Z,1330
2016-09-07T09:53:40.189Z,1300
2016-09-07T09:54:40.507Z,1230
2016-09-07T09:55:39.883Z,1335
2016-09-07T09:56:40.191Z,1285
2016-09-07T09:57:40.204Z,1175
2016-09-07T09:58:39.947Z,1270
2016-09-07T09:59:39.882Z,1220
2016-09-07T10:00:40.218Z,1175
2016-09-07T10:01:40.536Z,1155
2016-09-07T10:02:40.213Z,1180
2016-09-07T10:03:40.215Z,1140
2016-09-07T10:04:40.233Z,1125
2016-09-07T10:05:39.895Z,1160
2016-09-07T10:06:40.561Z,1115
2016-09-07T10:07:40.218Z,1130
2016-09-07T10:08:40.559Z,1170
2016-09-07T10:09:39.576Z,1095
2016-09-07T10:10:40.547Z,1130
2016-09-07T10:11:40.559Z,1110
2016-09-07T10:12:40.239Z,1070
2016-09-07T10:13:40.303Z,1060
2016-09-07T10:14:40.576Z,1070
2016-09-07T10:15:40.627Z,920
2016-09-07T10:16:40.266Z,540
2016-09-07T10:17:39.909Z,330
2016-09-07T10:18:40.225Z,315
2016-09-07T10:19:40.235Z,310
2016-09-07T10:20:40.549Z,315
2016-09-07T10:21:40.549Z,305
2016-09-07T10:22:39.586Z,305
2016-09-07T10:23:40.228Z,305
2016-09-07T10:24:40.225Z,300
2016-09-07T10:25:40.212Z,310
2016-09-07T10:26:39.266Z,300
2016-09-07T10:27:40.224Z,300
2016-09-07T10:28:40.238Z,300
2016-09-07T10:29:39.914Z,305
2016-09-07T10:30:39.899Z,310
2016-09-07T10:31:39.978Z,310
2016-09-07T10:32:39.908Z,305
2016-09-07T10:33:40.308Z,300
2016-09-07T10:34:39.893Z,300
2016-09-07T10:35:39.908Z,295
2016-09-07T10:36:40.536Z,290
2016-09-07T10:37:40.526Z,295
2016-09-07T10:38:40.205Z,295
2016-09-07T10:39:40.189Z,295
2016-09-07T10:40:40.543Z,295
2016-09-07T10:41:39.867Z,295
2016-09-07T10:42:40.613Z,295
2016-09-07T10:43:40.506Z,295
2016-09-07T10:44:40.188Z,295
2016-09-07T10:45:39.548Z,300
2016-09-07T10:46:40.290Z,305
2016-09-07T10:47:40.187Z,300
2016-09-07T10:48:40.517Z,295
2016-09-07T10:49:40.489Z,295
2016-09-07T10:50:40.509Z,300
2016-09-07T10:51:40.515Z,300
2016-09-07T10:52:40.158Z,295
2016-09-07T10:53:40.157Z,295
2016-09-07T10:54:40.178Z,290
2016-09-07T10:55:40.534Z,280
2016-09-07T10:56:40.485Z,280
2016-09-07T10:57:40.144Z,275
2016-09-07T10:58:40.168Z,275
2016-09-07T10:59:40.477Z,275
2016-09-07T11:00:40.469Z,275
2016-09-07T11:01:40.133Z,275
2016-09-07T11:02:39.826Z,275
2016-09-07T11:03:40.486Z,275
2016-09-07T11:04:39.820Z,275
2016-09-07T11:05:40.137Z,275
2016-09-07T11:06:40.445Z,275
2016-09-07T11:07:40.489Z,275
2016-09-07T11:08:40.460Z,275
2016-09-07T11:09:40.135Z,275
2016-09-07T11:10:40.138Z,275
2016-09-07T11:11:40.458Z,275
2016-09-07T11:12:40.438Z,275
2016-09-07T11:13:40.175Z,270
2016-09-07T11:14:39.778Z,275
2016-09-07T11:15:40.438Z,275
2016-09-07T11:16:40.110Z,275
2016-09-07T11:17:40.438Z,275
2016-09-07T11:18:40.111Z,275
2016-09-07T11:19:40.099Z,275
2016-09-07T11:20:40.454Z,275
2016-09-07T11:21:40.077Z,275
2016-09-07T11:22:39.768Z,275
2016-09-07T11:23:40.408Z,275
2016-09-07T11:24:40.104Z,275
2016-09-07T11:25:40.391Z,275
2016-09-07T11:26:40.422Z,275
2016-09-07T11:27:40.081Z,275
2016-09-07T11:28:40.082Z,275
2016-09-07T11:29:40.376Z,275
2016-09-07T11:30:39.734Z,275
2016-09-07T11:31:40.073Z,275
2016-09-07T11:32:40.391Z,275
2016-09-07T11:33:39.742Z,275
2016-09-07T11:34:40.377Z,275
2016-09-07T11:35:39.743Z,275
2016-09-07T11:36:40.052Z,275
2016-09-07T11:37:40.068Z,275
2016-09-07T11:38:40.039Z,275
2016-09-07T11:39:40.355Z,275
2016-09-07T11:40:40.034Z,275
2016-09-07T11:41:40.348Z,275
2016-09-07T11:42:40.028Z,275
2016-09-07T11:43:40.068Z,270
2016-09-07T11:44:40.047Z,270
2016-09-07T11:45:39.370Z,270
2016-09-07T11:46:40.005Z,265
2016-09-07T11:47:39.076Z,265
2016-09-07T11:48:40.349Z,270
2016-09-07T11:49:39.739Z,275
2016-09-07T11:50:40.357Z,275
2016-09-07T11:51:39.713Z,270
2016-09-07T11:52:40.007Z,270
2016-09-07T11:53:40.323Z,275
2016-09-07T11:54:40.315Z,270
2016-09-07T11:55:39.976Z,270
2016-09-07T11:56:40.314Z,270
2016-09-07T11:57:40.306Z,270
2016-09-07T11:58:40.307Z,270
2016-09-07T11:59:39.986Z,270
2016-09-07T12:00:40.315Z,275
2016-09-07T12:01:39.972Z,270
2016-09-07T12:02:39.955Z,270
2016-09-07T12:03:39.968Z,270
2016-09-07T12:04:40.273Z,270
2016-09-07T12:05:39.658Z,275
2016-09-07T12:06:40.288Z,270
2016-09-07T12:07:39.966Z,270
2016-09-07T12:08:39.948Z,270
2016-09-07T12:09:40.301Z,270
2016-09-07T12:10:39.660Z,270
2016-09-07T12:11:39.945Z,265
2016-09-07T12:12:40.271Z,265
2016-09-07T12:13:39.944Z,265
2016-09-07T12:14:40.294Z,265
2016-09-07T12:15:39.945Z,265
2016-09-07T12:16:39.937Z,270
2016-09-07T12:17:40.275Z,270
2016-09-07T12:18:39.345Z,265
2016-09-07T12:19:40.254Z,265
2016-09-07T12:20:39.608Z,265
2016-09-07T12:21:39.610Z,265
2016-09-07T12:22:39.927Z,270
2016-09-07T12:23:40.260Z,265
2016-09-07T12:24:39.966Z,265
2016-09-07T12:25:40.219Z,265
2016-09-07T12:26:39.579Z,265
2016-09-07T12:27:39.257Z,265
2016-09-07T12:28:39.898Z,265
2016-09-07T12:29:39.582Z,265
2016-09-07T12:30:40.206Z,265
2016-09-07T12:31:39.897Z,260
2016-09-07T12:32:40.237Z,260
2016-09-07T12:33:39.880Z,260
2016-09-07T12:34:39.548Z,260
2016-09-07T12:35:39.882Z,260
2016-09-07T12:36:40.190Z,260
2016-09-07T12:37:39.866Z,260
2016-09-07T12:38:39.959Z,260
2016-09-07T12:39:39.550Z,260
2016-09-07T12:40:40.205Z,260
2016-09-07T12:41:40.193Z,265
2016-09-07T12:42:39.858Z,265
2016-09-07T12:43:40.177Z,260
2016-09-07T12:44:39.528Z,260
2016-09-07T12:45:39.537Z,260
2016-09-07T12:46:40.180Z,260
2016-09-07T12:47:39.901Z,260
2016-09-07T12:48:40.159Z,260
2016-09-07T12:49:39.849Z,260
2016-09-07T12:50:40.169Z,260
2016-09-07T12:51:39.839Z,265
2016-09-07T12:52:39.850Z,260
2016-09-07T12:53:40.141Z,260
2016-09-07T12:54:39.496Z,255
2016-09-07T12:55:39.810Z,255
2016-09-07T12:56:39.491Z,255
2016-09-07T12:57:39.484Z,255
2016-09-07T12:58:39.485Z,255
2016-09-07T12:59:39.831Z,255
2016-09-07T13:00:39.496Z,255
2016-09-07T13:01:39.490Z,250
2016-09-07T13:02:40.120Z,250
2016-09-07T13:03:39.142Z,250
2016-09-07T13:04:39.788Z,250
2016-09-07T13:05:40.100Z,250
2016-09-07T13:06:39.494Z,250
2016-09-07T13:07:39.778Z,250
2016-09-07T13:08:39.486Z,250
2016-09-07T13:09:40.091Z,250
2016-09-07T13:10:39.781Z,250
2016-09-07T13:11:40.072Z,245
2016-09-07T13:12:39.119Z,250
2016-09-07T13:13:39.757Z,245
2016-09-07T13:14:39.737Z,245
2016-09-07T13:15:39.761Z,245
2016-09-07T13:16:39.442Z,250
2016-09-07T13:17:40.062Z,250
2016-09-07T13:18:39.430Z,250
2016-09-07T13:19:40.071Z,250
2016-09-07T13:20:39.125Z,245
2016-09-07T13:21:39.417Z,245
2016-09-07T13:22:40.060Z,245
2016-09-07T13:23:39.722Z,245
2016-09-07T13:24:39.091Z,245
2016-09-07T13:25:39.409Z,245
2016-09-07T13:26:40.057Z,245
2016-09-07T13:27:39.722Z,245
2016-09-07T13:28:39.076Z,245
2016-09-07T13:29:39.694Z,245
2016-09-07T13:30:40.017Z,245
2016-09-07T13:31:39.693Z,250
2016-09-07T13:32:39.706Z,245
2016-09-07T13:33:39.457Z,240
2016-09-07T13:34:39.394Z,240
2016-09-07T13:35:39.748Z,240
2016-09-07T13:36:40.035Z,240
2016-09-07T13:37:39.374Z,240
2016-09-07T13:38:39.668Z,240
2016-09-07T13:39:39.680Z,240
2016-09-07T13:40:39.682Z,240
2016-09-07T13:41:39.338Z,245
2016-09-07T13:42:39.685Z,245
2016-09-07T13:43:39.344Z,240
2016-09-07T13:44:39.660Z,240
2016-09-07T13:45:39.981Z,240
2016-09-07T13:46:40.019Z,240
2016-09-07T13:47:39.345Z,240
2016-09-07T13:48:39.971Z,240
2016-09-07T13:49:40.039Z,240
2016-09-07T13:50:39.337Z,235
2016-09-07T13:51:39.650Z,235
2016-09-07T13:52:39.318Z,235
2016-09-07T13:53:39.631Z,235
2016-09-07T13:54:39.293Z,235
2016-09-07T13:55:39.950Z,235
2016-09-07T13:56:39.648Z,245
2016-09-07T13:57:39.618Z,245
2016-09-07T13:58:39.601Z,240
2016-09-07T13:59:39.302Z,245
2016-09-07T14:00:39.924Z,240
2016-09-07T14:01:39.930Z,240
2016-09-07T14:02:39.608Z,240
2016-09-07T14:03:39.909Z,240
2016-09-07T14:04:39.909Z,240